createdAt,value
2023-04-22T00:00:06.580Z,7.43
2023-04-22T00:02:33.936Z,7.25
2023-04-22T00:05:01.480Z,6.90
2023-04-22T00:07:28.471Z,7.05
2023-04-22T00:09:55.316Z,7.15
2023-04-22T00:12:22.544Z,7.35
2023-04-22T00:14:49.394Z,7.53
2023-04-22T00:17:16.296Z,7.10
2023-04-22T00:19:43.837Z,7.55
2023-04-22T00:22:11.189Z,7.22
2023-04-22T00:24:38.043Z,7.35
2023-04-22T00:27:04.807Z,7.25
2023-04-22T00:29:31.545Z,7.85
2023-04-22T00:31:58.400Z,7.43
2023-04-22T00:34:25.324Z,7.32
2023-04-22T00:36:52.146Z,7.97
2023-04-22T00:39:18.925Z,7.28
2023-04-22T00:41:47.084Z,6.90
2023-04-22T00:44:13.894Z,7.03
2023-04-22T00:46:40.713Z,7.35
2023-04-22T00:49:08.610Z,7.57
2023-04-22T00:51:36.299Z,7.43
2023-04-22T00:54:04.659Z,7.55
2023-04-22T00:56:33.607Z,8.40
2023-04-22T00:59:00.477Z,6.95
2023-04-22T01:01:27.422Z,7.53
2023-04-22T01:03:54.864Z,7.60
2023-04-22T01:06:24.061Z,6.65
2023-04-22T01:08:51.302Z,6.63
2023-04-22T01:11:18.555Z,6.63
2023-04-22T01:13:45.375Z,6.82
2023-04-22T01:16:13.152Z,6.90
2023-04-22T01:18:39.935Z,6.95
2023-04-22T01:21:07.287Z,7.72
2023-04-22T01:23:34.264Z,7.18
2023-04-22T01:26:01.187Z,7.25
2023-04-22T01:28:28.708Z,7.25
2023-04-22T01:30:56.033Z,7.70
2023-04-22T01:33:22.901Z,7.40
2023-04-22T01:35:49.732Z,7.47
2023-04-22T01:38:16.529Z,7.38
2023-04-22T01:40:43.256Z,7.25
2023-04-22T01:43:09.987Z,7.60
2023-04-22T01:45:37.056Z,7.25
2023-04-22T01:48:04.901Z,7.55
2023-04-22T01:50:31.825Z,7.82
2023-04-22T01:52:59.092Z,7.53
2023-04-22T01:55:25.896Z,7.57
2023-04-22T01:57:52.694Z,7.68
2023-04-22T02:00:19.523Z,8.23
2023-04-22T02:02:46.667Z,7.80
2023-04-22T02:05:13.692Z,8.30
2023-04-22T02:07:40.564Z,7.60
2023-04-22T02:10:07.817Z,8.50
2023-04-22T02:12:34.715Z,8.38
2023-04-22T02:15:01.581Z,8.27
2023-04-22T02:17:28.726Z,8.20
2023-04-22T02:19:55.625Z,8.10
2023-04-22T02:22:23.899Z,7.82
2023-04-22T02:24:50.722Z,8.18
2023-04-22T02:27:17.636Z,7.82
2023-04-22T02:29:44.327Z,8.35
2023-04-22T02:32:11.138Z,8.13
2023-04-22T02:34:38.119Z,7.90
2023-04-22T02:37:05.571Z,7.95
2023-04-22T02:39:32.386Z,7.80
2023-04-22T02:41:59.259Z,7.65
2023-04-22T02:44:26.106Z,7.80
2023-04-22T02:46:53.054Z,8.13
2023-04-22T02:49:20.053Z,8.02
2023-04-22T02:51:46.862Z,7.97
2023-04-22T02:54:13.662Z,7.82
2023-04-22T02:56:40.376Z,8.55
2023-04-22T02:59:07.259Z,7.82
2023-04-22T03:01:34.125Z,8.32
2023-04-22T03:04:01.101Z,8.23
2023-04-22T03:06:28.035Z,7.45
2023-04-22T03:08:54.794Z,7.88
2023-04-22T03:11:21.574Z,6.70
2023-04-22T03:13:48.371Z,7.57
2023-04-22T03:16:17.071Z,7.80
2023-04-22T03:18:43.846Z,7.88
2023-04-22T03:21:10.620Z,7.22
2023-04-22T03:23:37.312Z,7.65
2023-04-22T03:26:04.110Z,7.45
2023-04-22T03:28:30.821Z,8.23
2023-04-22T03:30:57.601Z,7.45
2023-04-22T03:33:24.431Z,7.70
2023-04-22T03:35:51.193Z,8.18
2023-04-22T03:38:18.187Z,7.32
2023-04-22T03:40:44.943Z,7.72
2023-04-22T03:43:11.898Z,7.57
2023-04-22T03:45:38.922Z,8.32
2023-04-22T03:48:05.908Z,8.10
2023-04-22T03:50:33.733Z,7.68
2023-04-22T03:53:00.618Z,7.93
2023-04-22T03:55:27.456Z,7.70
2023-04-22T03:57:54.320Z,7.93
2023-04-22T04:00:21.315Z,8.30
2023-04-22T04:02:48.310Z,8.30
2023-04-22T04:05:15.422Z,8.48
2023-04-22T04:07:42.657Z,7.72
2023-04-22T04:10:10.460Z,7.45
2023-04-22T04:12:37.396Z,7.68
2023-04-22T04:15:04.534Z,7.15
2023-04-22T04:17:31.444Z,7.97
2023-04-22T04:19:58.251Z,7.60
2023-04-22T04:22:25.635Z,7.10
2023-04-22T04:24:52.443Z,7.88
2023-04-22T04:27:19.279Z,8.10
2023-04-22T04:29:46.084Z,8.20
2023-04-22T04:32:12.830Z,7.60
2023-04-22T04:34:39.682Z,7.80
2023-04-22T04:37:06.482Z,8.50
2023-04-22T04:39:33.671Z,7.60
2023-04-22T04:42:00.520Z,7.28
2023-04-22T04:44:27.490Z,8.05
2023-04-22T04:46:57.866Z,7.72
2023-04-22T04:51:51.339Z,7.50
2023-04-22T04:54:18.201Z,8.32
2023-04-22T04:56:45.070Z,7.38
2023-04-22T04:59:11.878Z,8.02
2023-04-22T05:01:39.091Z,7.88
2023-04-22T05:04:06.465Z,8.73
2023-04-22T05:06:33.690Z,7.82
2023-04-22T05:09:00.769Z,7.28
2023-04-22T05:11:27.531Z,7.68
2023-04-22T05:13:54.337Z,7.85
2023-04-22T05:16:21.221Z,7.43
2023-04-22T05:18:48.214Z,8.32
2023-04-22T05:21:16.086Z,7.97
2023-04-22T05:23:42.845Z,7.90
2023-04-22T05:26:09.585Z,8.35
2023-04-22T05:28:36.414Z,7.88
2023-04-22T05:31:03.214Z,8.98
2023-04-22T05:33:29.987Z,8.90
2023-04-22T05:35:56.722Z,8.13
2023-04-22T05:38:23.507Z,8.20
2023-04-22T05:40:50.210Z,8.50
2023-04-22T05:43:17.055Z,8.63
2023-04-22T05:45:43.898Z,7.85
2023-04-22T05:48:10.800Z,8.00
2023-04-22T05:50:37.637Z,8.20
2023-04-22T05:53:04.445Z,8.68
2023-04-22T05:55:31.455Z,9.40
2023-04-22T05:57:58.265Z,9.02
2023-04-22T06:00:25.177Z,9.05
2023-04-22T06:02:52.063Z,8.50
2023-04-22T06:05:19.184Z,9.15
2023-04-22T06:07:46.207Z,9.40
2023-04-22T06:10:13.037Z,8.77
2023-04-22T06:12:39.781Z,9.68
2023-04-22T06:15:07.085Z,9.90
2023-04-22T06:17:33.938Z,10.18
2023-04-22T06:20:00.678Z,10.50
2023-04-22T06:22:27.433Z,10.90
2023-04-22T06:24:54.201Z,11.00
2023-04-22T06:27:20.989Z,11.13
2023-04-22T06:29:47.772Z,11.73
2023-04-22T06:32:14.557Z,13.02
2023-04-22T06:34:41.419Z,13.38
2023-04-22T06:37:08.629Z,14.90
2023-04-22T06:39:35.373Z,16.27
2023-04-22T06:42:02.228Z,15.90
2023-04-22T06:44:29.434Z,17.17
2023-04-22T06:46:57.915Z,17.40
2023-04-22T06:49:25.131Z,18.45
2023-04-22T06:51:51.893Z,18.60
2023-04-22T06:54:18.673Z,19.77
2023-04-22T06:56:45.489Z,19.00
2023-04-22T06:59:12.265Z,18.27
2023-04-22T07:01:38.996Z,18.70
2023-04-22T07:04:05.869Z,18.77
2023-04-22T07:06:32.989Z,18.98
2023-04-22T07:09:00.042Z,19.55
2023-04-22T07:11:27.711Z,19.48
2023-04-22T07:13:54.460Z,19.90
2023-04-22T07:16:21.322Z,19.40
2023-04-22T07:18:48.161Z,18.73
2023-04-22T07:21:14.950Z,17.98
2023-04-22T07:23:41.660Z,18.45
2023-04-22T07:26:08.450Z,18.60
2023-04-22T07:28:35.308Z,18.23
2023-04-22T07:31:02.657Z,18.15
2023-04-22T07:33:29.387Z,18.23
2023-04-22T07:35:56.296Z,17.90
2023-04-22T07:38:23.070Z,17.35
2023-04-22T07:40:49.896Z,16.98
2023-04-22T07:43:17.531Z,17.92
2023-04-22T07:45:44.615Z,18.10
2023-04-22T07:48:11.420Z,16.92
2023-04-22T07:50:38.925Z,16.58
2023-04-22T07:53:06.144Z,16.95
2023-04-22T07:55:33.233Z,17.88
2023-04-22T07:58:06.486Z,16.27
2023-04-22T08:00:36.357Z,14.77
2023-04-22T08:03:04.001Z,14.35
2023-04-22T08:05:30.885Z,14.45
2023-04-22T08:07:57.643Z,13.90
2023-04-22T08:10:24.523Z,13.55
2023-04-22T08:12:51.371Z,13.43
2023-04-22T08:15:18.180Z,13.73
2023-04-22T08:17:45.009Z,12.63
2023-04-22T08:20:12.320Z,12.70
2023-04-22T08:22:39.156Z,13.07
2023-04-22T08:25:06.833Z,12.85
2023-04-22T08:27:33.639Z,12.65
2023-04-22T08:30:00.525Z,12.25
2023-04-22T08:32:27.540Z,11.93
2023-04-22T08:35:03.552Z,11.18
2023-04-22T08:37:31.762Z,10.82
2023-04-22T08:39:58.601Z,10.95
2023-04-22T08:42:26.868Z,11.50
2023-04-22T08:44:54.864Z,11.98
2023-04-22T08:47:22.101Z,11.73
2023-04-22T08:49:51.660Z,12.13
2023-04-22T08:52:18.883Z,11.55
2023-04-22T08:54:46.060Z,10.98
2023-04-22T08:57:14.946Z,11.07
2023-04-22T08:59:42.475Z,11.88
2023-04-22T09:02:16.694Z,11.02
2023-04-22T09:04:46.832Z,11.68
2023-04-22T09:07:20.981Z,11.35
2023-04-22T09:09:48.623Z,11.57
2023-04-22T09:12:15.440Z,11.55
2023-04-22T09:14:43.093Z,11.90
2023-04-22T09:17:09.779Z,11.38
2023-04-22T09:19:36.643Z,11.20
2023-04-22T09:22:03.450Z,11.35
2023-04-22T09:24:30.319Z,11.27
2023-04-22T09:26:57.377Z,11.38
2023-04-22T09:29:30.621Z,11.57
2023-04-22T09:31:57.387Z,11.65
2023-04-22T09:34:24.209Z,11.25
2023-04-22T09:36:52.073Z,11.40
2023-04-22T09:39:18.800Z,11.48
2023-04-22T09:41:45.671Z,10.45
2023-04-22T09:44:18.026Z,10.80
2023-04-22T09:46:45.427Z,10.85
2023-04-22T09:49:15.849Z,10.13
2023-04-22T09:51:42.650Z,10.65
2023-04-22T09:54:11.538Z,11.70
2023-04-22T09:56:52.633Z,10.48
2023-04-22T09:59:28.338Z,10.68
2023-04-22T10:02:04.500Z,10.98
2023-04-22T10:04:31.452Z,9.93
2023-04-22T10:06:58.478Z,9.73
2023-04-22T10:09:25.954Z,10.02
2023-04-22T10:11:55.552Z,11.50
2023-04-22T10:14:23.116Z,11.77
2023-04-22T10:16:53.424Z,11.02
2023-04-22T10:22:02.560Z,11.35
2023-04-22T10:24:34.281Z,11.43
2023-04-22T10:27:06.594Z,12.23
2023-04-22T10:29:39.157Z,12.00
2023-04-22T10:32:23.789Z,12.15
2023-04-22T10:35:06.217Z,12.00
2023-04-22T10:37:33.968Z,11.82
2023-04-22T10:40:26.944Z,12.40
2023-04-22T10:42:55.909Z,12.73
2023-04-22T10:45:25.553Z,12.38
2023-04-22T10:47:52.470Z,13.05
2023-04-22T10:50:26.012Z,13.15
2023-04-22T10:52:56.918Z,12.55
2023-04-22T10:55:25.672Z,11.60
2023-04-22T10:57:53.807Z,12.93
2023-04-22T11:00:25.285Z,11.80
2023-04-22T11:02:55.540Z,12.55
2023-04-22T11:05:27.651Z,13.57
2023-04-22T11:08:01.399Z,12.20
2023-04-22T11:10:44.385Z,11.75
2023-04-22T11:13:16.690Z,11.63
2023-04-22T11:15:46.628Z,11.50
2023-04-22T11:18:25.054Z,10.70
2023-04-22T11:20:53.629Z,10.27
2023-04-22T11:23:28.207Z,10.88
2023-04-22T11:26:01.464Z,10.38
2023-04-22T11:28:28.554Z,10.23
2023-04-22T11:31:11.837Z,9.45
2023-04-22T11:33:39.204Z,10.10
2023-04-22T11:36:10.646Z,10.77
2023-04-22T11:38:37.476Z,10.82
2023-04-22T11:41:05.128Z,10.95
2023-04-22T11:43:32.058Z,11.35
2023-04-22T11:45:58.929Z,11.48
2023-04-22T11:48:25.852Z,10.77
2023-04-22T11:51:11.545Z,10.80
2023-04-22T11:53:40.132Z,10.45
2023-04-22T11:56:07.045Z,10.48
2023-04-22T11:58:33.912Z,10.38
2023-04-22T12:01:00.748Z,11.00
2023-04-22T12:03:29.758Z,11.82
2023-04-22T12:05:58.834Z,11.27
2023-04-22T12:08:37.115Z,11.38
2023-04-22T12:11:06.976Z,10.82
2023-04-22T12:13:46.310Z,11.38
2023-04-22T12:16:15.151Z,11.10
2023-04-22T12:18:49.128Z,10.73
2023-04-22T12:21:19.407Z,10.23
2023-04-22T12:26:13.939Z,10.27
2023-04-22T12:28:42.140Z,10.75
2023-04-22T12:31:09.705Z,11.60
2023-04-22T12:33:37.830Z,11.02
2023-04-22T12:36:05.790Z,11.43
2023-04-22T12:38:33.190Z,11.90
2023-04-22T12:41:00.039Z,11.88
2023-04-22T12:43:27.327Z,11.73
2023-04-22T12:45:54.105Z,12.95
2023-04-22T12:48:21.039Z,12.98
2023-04-22T12:50:47.799Z,12.60
2023-04-22T12:53:15.328Z,13.82
2023-04-22T12:55:43.367Z,12.38
2023-04-22T12:58:12.239Z,12.30
2023-04-22T13:00:39.017Z,12.68
2023-04-22T13:03:06.030Z,13.55
2023-04-22T13:05:32.955Z,13.20
2023-04-22T13:08:07.004Z,13.40
2023-04-22T13:10:35.632Z,13.60
2023-04-22T13:13:16.988Z,14.15
2023-04-22T13:15:45.607Z,13.20
2023-04-22T13:18:12.484Z,13.98
2023-04-22T13:20:40.790Z,14.07
2023-04-22T13:23:08.169Z,14.57
2023-04-22T13:25:35.080Z,15.15
2023-04-22T13:28:02.018Z,14.48
2023-04-22T13:30:28.884Z,13.75
2023-04-22T13:32:55.584Z,13.65
2023-04-22T13:35:22.363Z,14.07
2023-04-22T13:37:49.106Z,14.55
2023-04-22T13:40:16.231Z,14.15
2023-04-22T13:42:44.464Z,14.00
2023-04-22T13:45:11.421Z,14.10
2023-04-22T13:47:38.249Z,14.95
2023-04-22T13:50:06.355Z,14.40
2023-04-22T13:52:33.957Z,14.55
2023-04-22T13:55:00.973Z,14.43
2023-04-22T13:57:27.750Z,14.45
2023-04-22T13:59:54.628Z,13.77
2023-04-22T14:02:21.522Z,14.60
2023-04-22T14:04:48.394Z,14.68
2023-04-22T14:07:15.249Z,14.40
2023-04-22T14:09:42.424Z,14.18
2023-04-22T14:12:11.114Z,15.40
2023-04-22T14:14:37.929Z,16.27
2023-04-22T14:17:04.915Z,15.32
2023-04-22T14:19:31.819Z,14.48
2023-04-22T14:21:58.683Z,14.57
2023-04-22T14:24:26.062Z,14.93
2023-04-22T14:26:53.981Z,15.95
2023-04-22T14:29:21.018Z,15.35
2023-04-22T14:31:49.793Z,15.93
2023-04-22T14:34:17.078Z,16.65
2023-04-22T14:36:44.189Z,16.67
2023-04-22T14:39:10.961Z,15.65
2023-04-22T14:41:37.805Z,15.73
2023-04-22T14:44:04.633Z,16.15
2023-04-22T14:46:31.627Z,15.88
2023-04-22T14:48:58.388Z,15.80
2023-04-22T14:51:25.454Z,15.82
2023-04-22T14:53:52.209Z,15.70
2023-04-22T14:56:19.407Z,15.23
2023-04-22T14:58:46.750Z,16.38
2023-04-22T15:01:13.593Z,16.45
2023-04-22T15:03:40.808Z,16.00
2023-04-22T15:06:07.767Z,16.13
2023-04-22T15:08:34.524Z,16.55
2023-04-22T15:11:01.242Z,16.52
2023-04-22T15:13:28.094Z,16.73
2023-04-22T15:15:55.002Z,16.92
2023-04-22T15:18:21.817Z,16.60
2023-04-22T15:20:48.519Z,16.77
2023-04-22T15:23:15.308Z,17.73
2023-04-22T15:25:42.484Z,18.55
2023-04-22T15:28:09.269Z,17.98
2023-04-22T15:30:36.063Z,17.30
2023-04-22T15:33:04.926Z,17.48
2023-04-22T15:35:31.838Z,18.08
2023-04-22T15:37:59.035Z,17.92
2023-04-22T15:40:25.944Z,20.05
2023-04-22T15:42:52.810Z,19.55
2023-04-22T15:45:20.066Z,19.15
2023-04-22T15:47:47.083Z,20.55
2023-04-22T15:50:14.012Z,21.48
2023-04-22T15:52:40.942Z,21.95
2023-04-22T15:55:08.269Z,22.40
2023-04-22T15:57:35.746Z,21.98
2023-04-22T16:00:12.963Z,22.20
2023-04-22T16:02:41.218Z,24.38
2023-04-22T16:05:08.555Z,24.75
2023-04-22T16:07:35.487Z,21.38
2023-04-22T16:10:02.550Z,21.73
2023-04-22T16:12:29.856Z,20.75
2023-04-22T16:14:57.687Z,20.67
2023-04-22T16:17:25.120Z,19.45
2023-04-22T16:19:51.994Z,20.95
2023-04-22T16:22:18.748Z,19.52
2023-04-22T16:24:45.484Z,18.30
2023-04-22T16:27:16.269Z,21.30
2023-04-22T16:29:43.715Z,16.83
2023-04-22T16:32:10.931Z,18.58
2023-04-22T16:34:38.412Z,18.35
2023-04-22T16:37:05.931Z,19.65
2023-04-22T16:39:33.007Z,18.55
2023-04-22T16:42:00.072Z,18.65
2023-04-22T16:44:26.892Z,17.20
2023-04-22T16:46:53.619Z,17.90
2023-04-22T16:49:21.004Z,18.98
2023-04-22T16:51:48.425Z,17.50
2023-04-22T16:54:15.279Z,19.70
2023-04-22T16:56:42.050Z,18.38
2023-04-22T16:59:08.794Z,17.02
2023-04-22T17:01:36.205Z,17.92
2023-04-22T17:04:03.197Z,16.17
2023-04-22T17:06:30.021Z,15.93
2023-04-22T17:08:56.726Z,16.55
2023-04-22T17:11:24.105Z,16.38
2023-04-22T17:13:51.487Z,17.00
2023-04-22T17:16:18.667Z,16.17
2023-04-22T17:18:46.999Z,16.58
2023-04-22T17:21:13.925Z,17.55
2023-04-22T17:23:40.853Z,16.60
2023-04-22T17:26:07.665Z,18.25
2023-04-22T17:28:34.649Z,18.25
2023-04-22T17:31:01.456Z,17.08
2023-04-22T17:33:29.160Z,18.27
2023-04-22T17:35:56.291Z,18.48
2023-04-22T17:38:23.145Z,18.52
2023-04-22T17:40:49.930Z,17.48
2023-04-22T17:43:16.678Z,17.70
2023-04-22T17:45:44.097Z,19.27
2023-04-22T17:48:10.837Z,19.23
2023-04-22T17:50:37.626Z,18.92
2023-04-22T17:53:04.473Z,18.70
2023-04-22T17:55:35.001Z,20.92
2023-04-22T17:58:05.609Z,21.08
2023-04-22T18:00:33.593Z,20.55
2023-04-22T18:03:00.889Z,19.75
2023-04-22T18:05:27.918Z,20.40
2023-04-22T18:08:12.582Z,21.10
2023-04-22T18:10:40.315Z,19.33
2023-04-22T18:13:07.079Z,20.38
2023-04-22T18:15:33.947Z,21.50
2023-04-22T18:18:01.315Z,20.63
2023-04-22T18:20:28.170Z,19.67
2023-04-22T18:22:56.351Z,20.52
2023-04-22T18:25:24.166Z,20.83
2023-04-22T18:27:54.866Z,20.17
2023-04-22T18:30:25.194Z,21.83
2023-04-22T18:35:19.960Z,21.83
2023-04-22T18:37:46.819Z,21.90
2023-04-22T18:40:14.006Z,22.33
2023-04-22T18:42:44.482Z,22.98
2023-04-22T18:45:12.038Z,21.58
2023-04-22T18:47:38.975Z,22.42
2023-04-22T18:50:06.186Z,21.05
2023-04-22T18:52:34.054Z,23.38
2023-04-22T18:55:00.877Z,22.77
2023-04-22T18:57:27.732Z,22.10
2023-04-22T18:59:55.016Z,22.30
2023-04-22T19:02:21.968Z,21.33
2023-04-22T19:04:48.974Z,21.63
2023-04-22T19:07:15.724Z,22.48
2023-04-22T19:09:42.393Z,21.45
2023-04-22T19:12:14.562Z,22.88
2023-04-22T19:14:42.159Z,24.05
2023-04-22T19:17:09.206Z,23.52
2023-04-22T19:19:36.007Z,24.60
2023-04-22T19:22:02.720Z,24.23
2023-04-22T19:24:33.345Z,25.25
2023-04-22T19:27:02.467Z,22.17
2023-04-22T19:29:29.562Z,22.92
2023-04-22T19:31:57.318Z,23.52
2023-04-22T19:34:24.180Z,23.35
2023-04-22T19:36:51.285Z,21.77
2023-04-22T19:39:18.201Z,22.52
2023-04-22T19:41:45.010Z,25.60
2023-04-22T19:44:11.790Z,23.63
2023-04-22T19:46:38.556Z,22.13
2023-04-22T19:49:06.629Z,23.25
2023-04-22T19:51:33.995Z,23.70
2023-04-22T19:54:01.785Z,22.88
2023-04-22T19:56:28.638Z,22.23
2023-04-22T19:58:56.062Z,24.17
2023-04-22T20:01:23.031Z,22.40
2023-04-22T20:03:50.746Z,24.05
2023-04-22T20:06:18.932Z,23.02
2023-04-22T20:08:47.734Z,22.38
2023-04-22T20:11:14.711Z,22.80
2023-04-22T20:13:42.328Z,23.10
2023-04-22T20:16:09.630Z,23.48
2023-04-22T20:18:36.630Z,22.85
2023-04-22T20:21:04.529Z,22.42
2023-04-22T20:23:33.392Z,22.50
2023-04-22T20:26:00.736Z,23.42
2023-04-22T20:28:48.176Z,23.25
2023-04-22T20:31:18.437Z,22.95
2023-04-22T20:36:15.224Z,22.63
2023-04-22T20:38:43.207Z,23.58
2023-04-22T20:41:10.247Z,23.63
2023-04-22T20:43:37.115Z,23.08
2023-04-22T20:46:04.126Z,23.30
2023-04-22T20:48:31.227Z,23.33
2023-04-22T20:50:57.936Z,24.10
2023-04-22T20:53:27.029Z,24.10
2023-04-22T20:55:54.112Z,23.80
2023-04-22T20:58:20.929Z,22.85
2023-04-22T21:00:47.721Z,24.55
2023-04-22T21:03:16.801Z,23.63
2023-04-22T21:05:45.903Z,22.45
2023-04-22T21:08:24.426Z,23.75
2023-04-22T21:10:53.291Z,22.48
2023-04-22T21:13:20.862Z,21.50
2023-04-22T21:15:59.169Z,22.70
2023-04-22T21:18:28.839Z,22.13
2023-04-22T21:20:56.593Z,21.73
2023-04-22T21:23:24.352Z,21.92
2023-04-22T21:25:53.079Z,23.17
2023-04-22T21:28:21.843Z,23.70
2023-04-22T21:30:48.745Z,22.67
2023-04-22T21:33:15.578Z,23.60
2023-04-22T21:35:42.429Z,25.48
2023-04-22T21:38:09.619Z,23.98
2023-04-22T21:40:36.478Z,22.92
2023-04-22T21:43:04.699Z,23.27
2023-04-22T21:45:31.445Z,22.67
2023-04-22T21:48:01.263Z,23.00
2023-04-22T21:50:30.128Z,22.50
2023-04-22T21:52:57.149Z,24.65
2023-04-22T21:55:23.924Z,23.75
2023-04-22T21:57:50.999Z,24.60
2023-04-22T22:00:19.007Z,23.60
2023-04-22T22:02:47.386Z,26.08
2023-04-22T22:05:17.334Z,28.00
2023-04-22T22:07:44.822Z,27.30
2023-04-22T22:10:14.607Z,28.30
2023-04-22T22:12:41.662Z,30.48
2023-04-22T22:15:09.168Z,30.38
2023-04-22T22:17:38.027Z,28.67
2023-04-22T22:20:10.909Z,27.25
2023-04-22T22:22:41.690Z,27.55
2023-04-22T22:25:11.020Z,28.98
2023-04-22T22:27:40.841Z,29.90
2023-04-22T22:30:08.672Z,30.15
2023-04-22T22:32:36.353Z,32.08
2023-04-22T22:35:03.405Z,29.70
2023-04-22T22:37:30.310Z,31.23
2023-04-22T22:39:57.020Z,32.20
2023-04-22T22:42:23.784Z,32.45
2023-04-22T22:44:50.585Z,31.30
2023-04-22T22:47:17.693Z,29.27
2023-04-22T22:49:45.561Z,31.48
2023-04-22T22:52:13.160Z,31.48
2023-04-22T22:54:40.735Z,31.15
2023-04-22T22:57:08.173Z,30.85
2023-04-22T22:59:37.328Z,28.85
2023-04-22T23:02:04.303Z,30.70
2023-04-22T23:04:31.397Z,31.05
2023-04-22T23:06:58.484Z,29.50
2023-04-22T23:09:25.200Z,30.42
2023-04-22T23:11:52.081Z,29.80
2023-04-22T23:14:20.095Z,28.23
2023-04-22T23:16:47.795Z,31.80
2023-04-22T23:19:15.857Z,31.80
2023-04-22T23:21:43.750Z,30.95
2023-04-22T23:24:12.047Z,29.08
2023-04-22T23:26:38.992Z,30.10
2023-04-22T23:29:06.606Z,28.30
2023-04-22T23:31:34.750Z,28.67
2023-04-22T23:34:03.343Z,28.20
2023-04-22T23:36:36.408Z,30.25
2023-04-22T23:39:05.666Z,27.73
2023-04-22T23:41:33.719Z,29.63
2023-04-22T23:44:00.579Z,30.40
2023-04-22T23:46:27.656Z,28.65
2023-04-22T23:48:54.730Z,31.05
2023-04-22T23:51:21.468Z,30.88
2023-04-22T23:53:48.491Z,31.75
2023-04-22T23:56:20.024Z,29.25
2023-04-22T23:58:47.574Z,30.83
